sensor_id;sensor_type;location;lat;lon;timestamp;P1;durP1;ratioP1;P2;durP2;ratioP2
20140;SDS011;10231;47.702;9.826;2022-07-29T00:02:24;0.97;;;0.80;;
20140;SDS011;10231;47.702;9.826;2022-07-29T00:04:50;2.20;;;1.07;;
20140;SDS011;10231;47.702;9.826;2022-07-29T00:07:16;0.70;;;0.70;;
20140;SDS011;10231;47.702;9.826;2022-07-29T00:09:42;0.97;;;0.97;;
20140;SDS011;10231;47.702;9.826;2022-07-29T00:12:07;0.70;;;0.70;;
20140;SDS011;10231;47.702;9.826;2022-07-29T00:14:33;1.37;;;0.90;;
20140;SDS011;10231;47.702;9.826;2022-07-29T00:16:59;0.87;;;0.80;;
20140;SDS011;10231;47.702;9.826;2022-07-29T00:19:24;1.53;;;0.87;;
20140;SDS011;10231;47.702;9.826;2022-07-29T00:21:50;1.10;;;1.00;;
20140;SDS011;10231;47.702;9.826;2022-07-29T00:24:15;4.60;;;0.97;;
20140;SDS011;10231;47.702;9.826;2022-07-29T00:26:41;1.20;;;1.10;;
20140;SDS011;10231;47.702;9.826;2022-07-29T00:29:07;0.87;;;0.87;;
20140;SDS011;10231;47.702;9.826;2022-07-29T00:31:32;1.00;;;1.00;;
20140;SDS011;10231;47.702;9.826;2022-07-29T00:33:58;0.80;;;0.80;;
20140;SDS011;10231;47.702;9.826;2022-07-29T00:36:23;1.93;;;1.13;;
20140;SDS011;10231;47.702;9.826;2022-07-29T00:38:49;2.10;;;1.07;;
20140;SDS011;10231;47.702;9.826;2022-07-29T00:41:16;1.03;;;0.80;;
20140;SDS011;10231;47.702;9.826;2022-07-29T00:43:43;1.33;;;1.23;;
20140;SDS011;10231;47.702;9.826;2022-07-29T00:46:09;1.33;;;0.70;;
20140;SDS011;10231;47.702;9.826;2022-07-29T00:48:36;0.83;;;0.80;;
20140;SDS011;10231;47.702;9.826;2022-07-29T00:51:02;1.20;;;0.90;;
20140;SDS011;10231;47.702;9.826;2022-07-29T00:53:29;1.03;;;0.83;;
20140;SDS011;10231;47.702;9.826;2022-07-29T00:55:55;2.20;;;1.03;;
20140;SDS011;10231;47.702;9.826;2022-07-29T00:58:21;0.80;;;0.80;;
20140;SDS011;10231;47.702;9.826;2022-07-29T01:00:48;2.23;;;0.80;;
20140;SDS011;10231;47.702;9.826;2022-07-29T01:03:14;1.10;;;1.00;;
20140;SDS011;10231;47.702;9.826;2022-07-29T01:05:40;1.30;;;1.10;;
20140;SDS011;10231;47.702;9.826;2022-07-29T01:08:07;1.90;;;0.77;;
20140;SDS011;10231;47.702;9.826;2022-07-29T01:10:35;0.70;;;0.70;;
20140;SDS011;10231;47.702;9.826;2022-07-29T01:13:02;2.20;;;0.80;;
20140;SDS011;10231;47.702;9.826;2022-07-29T01:15:28;2.00;;;0.80;;
20140;SDS011;10231;47.702;9.826;2022-07-29T01:30:58;1.17;;;0.90;;
20140;SDS011;10231;47.702;9.826;2022-07-29T01:33:27;1.17;;;0.80;;
20140;SDS011;10231;47.702;9.826;2022-07-29T01:36:15;1.00;;;0.90;;
20140;SDS011;10231;47.702;9.826;2022-07-29T01:39:08;1.10;;;1.00;;
20140;SDS011;10231;47.702;9.826;2022-07-29T01:41:57;1.53;;;0.80;;
20140;SDS011;10231;47.702;9.826;2022-07-29T01:44:34;1.10;;;1.00;;
20140;SDS011;10231;47.702;9.826;2022-07-29T01:47:10;2.30;;;1.60;;
20140;SDS011;10231;47.702;9.826;2022-07-29T01:49:41;0.70;;;0.70;;
20140;SDS011;10231;47.702;9.826;2022-07-29T01:55:11;1.47;;;1.10;;
20140;SDS011;10231;47.702;9.826;2022-07-29T01:57:40;0.60;;;0.60;;
20140;SDS011;10231;47.702;9.826;2022-07-29T02:00:09;1.13;;;0.70;;
20140;SDS011;10231;47.702;9.826;2022-07-29T02:02:35;1.10;;;1.00;;
20140;SDS011;10231;47.702;9.826;2022-07-29T02:05:05;0.93;;;0.93;;
20140;SDS011;10231;47.702;9.826;2022-07-29T02:07:37;2.47;;;0.90;;
20140;SDS011;10231;47.702;9.826;2022-07-29T02:10:05;0.80;;;0.80;;
20140;SDS011;10231;47.702;9.826;2022-07-29T02:12:33;0.97;;;0.97;;
20140;SDS011;10231;47.702;9.826;2022-07-29T02:15:01;1.13;;;0.73;;
20140;SDS011;10231;47.702;9.826;2022-07-29T02:17:32;1.30;;;0.90;;
20140;SDS011;10231;47.702;9.826;2022-07-29T02:20:03;0.90;;;0.90;;
20140;SDS011;10231;47.702;9.826;2022-07-29T02:22:30;1.17;;;1.00;;
20140;SDS011;10231;47.702;9.826;2022-07-29T02:24:58;1.70;;;0.87;;
20140;SDS011;10231;47.702;9.826;2022-07-29T02:27:25;0.90;;;0.90;;
20140;SDS011;10231;47.702;9.826;2022-07-29T02:29:52;1.00;;;0.90;;
20140;SDS011;10231;47.702;9.826;2022-07-29T02:32:20;2.73;;;1.07;;
20140;SDS011;10231;47.702;9.826;2022-07-29T02:34:47;1.17;;;1.17;;
20140;SDS011;10231;47.702;9.826;2022-07-29T02:37:13;1.33;;;1.10;;
20140;SDS011;10231;47.702;9.826;2022-07-29T02:39:42;0.77;;;0.77;;
20140;SDS011;10231;47.702;9.826;2022-07-29T02:42:10;1.07;;;1.07;;
20140;SDS011;10231;47.702;9.826;2022-07-29T02:44:39;1.23;;;1.23;;
20140;SDS011;10231;47.702;9.826;2022-07-29T02:47:24;1.13;;;1.10;;
20140;SDS011;10231;47.702;9.826;2022-07-29T02:50:06;1.13;;;0.93;;
20140;SDS011;10231;47.702;9.826;2022-07-29T02:52:57;1.20;;;1.07;;
20140;SDS011;10231;47.702;9.826;2022-07-29T03:00:37;1.00;;;1.00;;
20140;SDS011;10231;47.702;9.826;2022-07-29T03:03:07;1.23;;;1.00;;
20140;SDS011;10231;47.702;9.826;2022-07-29T03:05:35;1.67;;;1.13;;
20140;SDS011;10231;47.702;9.826;2022-07-29T03:08:02;1.50;;;1.30;;
20140;SDS011;10231;47.702;9.826;2022-07-29T03:10:30;1.27;;;1.17;;
20140;SDS011;10231;47.702;9.826;2022-07-29T03:12:57;0.80;;;0.80;;
20140;SDS011;10231;47.702;9.826;2022-07-29T03:15:23;1.70;;;0.90;;
20140;SDS011;10231;47.702;9.826;2022-07-29T03:17:50;2.10;;;1.23;;
20140;SDS011;10231;47.702;9.826;2022-07-29T03:20:17;1.27;;;1.00;;
20140;SDS011;10231;47.702;9.826;2022-07-29T03:22:43;1.67;;;0.97;;
20140;SDS011;10231;47.702;9.826;2022-07-29T03:25:12;2.10;;;1.00;;
20140;SDS011;10231;47.702;9.826;2022-07-29T03:27:40;1.00;;;1.00;;
20140;SDS011;10231;47.702;9.826;2022-07-29T03:30:06;0.97;;;0.87;;
20140;SDS011;10231;47.702;9.826;2022-07-29T03:32:33;1.10;;;0.80;;
20140;SDS011;10231;47.702;9.826;2022-07-29T03:34:59;1.10;;;1.10;;
20140;SDS011;10231;47.702;9.826;2022-07-29T03:37:25;1.47;;;1.07;;
20140;SDS011;10231;47.702;9.826;2022-07-29T03:39:51;1.57;;;1.07;;
20140;SDS011;10231;47.702;9.826;2022-07-29T03:42:19;2.63;;;0.90;;
20140;SDS011;10231;47.702;9.826;2022-07-29T03:44:48;0.97;;;0.90;;
20140;SDS011;10231;47.702;9.826;2022-07-29T03:47:16;0.80;;;0.80;;
20140;SDS011;10231;47.702;9.826;2022-07-29T03:49:46;1.23;;;1.13;;
20140;SDS011;10231;47.702;9.826;2022-07-29T03:52:14;1.60;;;0.97;;
20140;SDS011;10231;47.702;9.826;2022-07-29T03:54:40;1.40;;;1.30;;
20140;SDS011;10231;47.702;9.826;2022-07-29T03:57:06;1.37;;;1.27;;
20140;SDS011;10231;47.702;9.826;2022-07-29T03:59:32;2.10;;;1.30;;
20140;SDS011;10231;47.702;9.826;2022-07-29T04:01:59;0.93;;;0.93;;
20140;SDS011;10231;47.702;9.826;2022-07-29T04:04:26;1.50;;;0.90;;
20140;SDS011;10231;47.702;9.826;2022-07-29T04:06:52;1.43;;;1.27;;
20140;SDS011;10231;47.702;9.826;2022-07-29T04:09:18;1.07;;;0.90;;
20140;SDS011;10231;47.702;9.826;2022-07-29T04:11:44;1.17;;;1.07;;
20140;SDS011;10231;47.702;9.826;2022-07-29T04:14:10;1.03;;;1.03;;
20140;SDS011;10231;47.702;9.826;2022-07-29T04:16:36;2.93;;;1.20;;
20140;SDS011;10231;47.702;9.826;2022-07-29T04:19:02;1.63;;;1.23;;
20140;SDS011;10231;47.702;9.826;2022-07-29T04:21:27;1.97;;;1.43;;
20140;SDS011;10231;47.702;9.826;2022-07-29T04:23:53;2.67;;;1.40;;
20140;SDS011;10231;47.702;9.826;2022-07-29T04:26:19;1.50;;;1.33;;
20140;SDS011;10231;47.702;9.826;2022-07-29T04:28:45;1.40;;;1.30;;
20140;SDS011;10231;47.702;9.826;2022-07-29T04:31:12;1.77;;;1.50;;
20140;SDS011;10231;47.702;9.826;2022-07-29T04:33:38;1.27;;;1.27;;
20140;SDS011;10231;47.702;9.826;2022-07-29T04:36:04;2.30;;;1.40;;
20140;SDS011;10231;47.702;9.826;2022-07-29T04:38:30;1.30;;;1.20;;
20140;SDS011;10231;47.702;9.826;2022-07-29T04:40:56;1.87;;;1.20;;
20140;SDS011;10231;47.702;9.826;2022-07-29T04:43:21;1.10;;;1.10;;
20140;SDS011;10231;47.702;9.826;2022-07-29T04:45:47;1.60;;;1.50;;
20140;SDS011;10231;47.702;9.826;2022-07-29T04:48:13;1.23;;;1.23;;
20140;SDS011;10231;47.702;9.826;2022-07-29T04:50:39;1.90;;;1.40;;
20140;SDS011;10231;47.702;9.826;2022-07-29T04:53:05;1.37;;;1.13;;
20140;SDS011;10231;47.702;9.826;2022-07-29T04:55:32;1.33;;;1.23;;
20140;SDS011;10231;47.702;9.826;2022-07-29T04:57:58;2.43;;;1.30;;
20140;SDS011;10231;47.702;9.826;2022-07-29T05:00:23;1.47;;;1.40;;
20140;SDS011;10231;47.702;9.826;2022-07-29T05:02:49;2.97;;;1.20;;
20140;SDS011;10231;47.702;9.826;2022-07-29T05:05:15;0.93;;;0.93;;
20140;SDS011;10231;47.702;9.826;2022-07-29T05:07:40;1.43;;;1.43;;
20140;SDS011;10231;47.702;9.826;2022-07-29T05:10:06;1.33;;;1.10;;
20140;SDS011;10231;47.702;9.826;2022-07-29T05:12:33;0.97;;;0.97;;
20140;SDS011;10231;47.702;9.826;2022-07-29T05:14:58;1.00;;;1.00;;
20140;SDS011;10231;47.702;9.826;2022-07-29T05:17:24;3.60;;;0.90;;
20140;SDS011;10231;47.702;9.826;2022-07-29T05:19:50;0.80;;;0.80;;
20140;SDS011;10231;47.702;9.826;2022-07-29T05:22:16;1.53;;;1.00;;
20140;SDS011;10231;47.702;9.826;2022-07-29T05:24:45;1.20;;;1.00;;
20140;SDS011;10231;47.702;9.826;2022-07-29T05:27:11;1.10;;;1.07;;
20140;SDS011;10231;47.702;9.826;2022-07-29T05:29:36;1.00;;;1.00;;
20140;SDS011;10231;47.702;9.826;2022-07-29T05:32:03;1.67;;;1.00;;
20140;SDS011;10231;47.702;9.826;2022-07-29T05:34:29;1.33;;;1.00;;
20140;SDS011;10231;47.702;9.826;2022-07-29T05:36:55;1.73;;;1.13;;
20140;SDS011;10231;47.702;9.826;2022-07-29T05:39:21;1.40;;;1.13;;
20140;SDS011;10231;47.702;9.826;2022-07-29T05:41:47;1.17;;;1.17;;
20140;SDS011;10231;47.702;9.826;2022-07-29T05:44:13;1.40;;;1.30;;
20140;SDS011;10231;47.702;9.826;2022-07-29T05:46:38;1.63;;;1.53;;
20140;SDS011;10231;47.702;9.826;2022-07-29T05:49:04;1.47;;;1.10;;
20140;SDS011;10231;47.702;9.826;2022-07-29T05:51:31;1.30;;;1.20;;
20140;SDS011;10231;47.702;9.826;2022-07-29T05:53:57;1.10;;;1.10;;
20140;SDS011;10231;47.702;9.826;2022-07-29T05:56:23;0.70;;;0.70;;
20140;SDS011;10231;47.702;9.826;2022-07-29T05:58:49;1.00;;;0.87;;
20140;SDS011;10231;47.702;9.826;2022-07-29T06:01:15;1.17;;;1.00;;
20140;SDS011;10231;47.702;9.826;2022-07-29T06:03:41;0.73;;;0.73;;
20140;SDS011;10231;47.702;9.826;2022-07-29T06:06:10;2.03;;;1.10;;
20140;SDS011;10231;47.702;9.826;2022-07-29T06:08:35;0.90;;;0.90;;
20140;SDS011;10231;47.702;9.826;2022-07-29T06:11:02;2.13;;;0.73;;
20140;SDS011;10231;47.702;9.826;2022-07-29T06:13:28;11.63;;;1.50;;
20140;SDS011;10231;47.702;9.826;2022-07-29T06:15:54;1.00;;;0.90;;
20140;SDS011;10231;47.702;9.826;2022-07-29T06:18:20;0.97;;;0.97;;
20140;SDS011;10231;47.702;9.826;2022-07-29T06:20:48;2.03;;;1.10;;
20140;SDS011;10231;47.702;9.826;2022-07-29T06:23:17;1.17;;;1.17;;
20140;SDS011;10231;47.702;9.826;2022-07-29T06:25:44;1.33;;;1.33;;
20140;SDS011;10231;47.702;9.826;2022-07-29T06:28:10;3.23;;;1.30;;
20140;SDS011;10231;47.702;9.826;2022-07-29T06:30:36;1.10;;;1.00;;
20140;SDS011;10231;47.702;9.826;2022-07-29T06:33:02;2.97;;;1.00;;
20140;SDS011;10231;47.702;9.826;2022-07-29T06:35:28;1.40;;;1.10;;
20140;SDS011;10231;47.702;9.826;2022-07-29T06:37:53;0.90;;;0.90;;
20140;SDS011;10231;47.702;9.826;2022-07-29T06:40:19;1.30;;;1.20;;
20140;SDS011;10231;47.702;9.826;2022-07-29T06:43:03;2.30;;;0.80;;
20140;SDS011;10231;47.702;9.826;2022-07-29T06:45:30;0.70;;;0.70;;
20140;SDS011;10231;47.702;9.826;2022-07-29T06:47:58;0.73;;;0.73;;
20140;SDS011;10231;47.702;9.826;2022-07-29T06:50:24;1.70;;;1.10;;
20140;SDS011;10231;47.702;9.826;2022-07-29T06:52:50;0.60;;;0.60;;
20140;SDS011;10231;47.702;9.826;2022-07-29T06:55:15;1.07;;;0.97;;
20140;SDS011;10231;47.702;9.826;2022-07-29T06:57:41;1.60;;;0.70;;
20140;SDS011;10231;47.702;9.826;2022-07-29T07:00:07;4.50;;;1.37;;
20140;SDS011;10231;47.702;9.826;2022-07-29T07:02:33;1.13;;;0.80;;
20140;SDS011;10231;47.702;9.826;2022-07-29T07:04:58;0.90;;;0.90;;
20140;SDS011;10231;47.702;9.826;2022-07-29T07:07:24;1.30;;;1.10;;
20140;SDS011;10231;47.702;9.826;2022-07-29T07:09:50;0.97;;;0.97;;
20140;SDS011;10231;47.702;9.826;2022-07-29T07:12:16;1.00;;;1.00;;
20140;SDS011;10231;47.702;9.826;2022-07-29T07:14:41;0.80;;;0.80;;
20140;SDS011;10231;47.702;9.826;2022-07-29T07:17:07;1.23;;;1.10;;
20140;SDS011;10231;47.702;9.826;2022-07-29T07:19:32;1.13;;;1.03;;
20140;SDS011;10231;47.702;9.826;2022-07-29T07:21:58;0.90;;;0.90;;
20140;SDS011;10231;47.702;9.826;2022-07-29T07:24:24;1.37;;;1.27;;
20140;SDS011;10231;47.702;9.826;2022-07-29T07:26:50;1.47;;;1.37;;
20140;SDS011;10231;47.702;9.826;2022-07-29T07:29:16;1.57;;;1.30;;
20140;SDS011;10231;47.702;9.826;2022-07-29T07:31:41;4.23;;;1.97;;
20140;SDS011;10231;47.702;9.826;2022-07-29T07:34:07;1.30;;;1.30;;
20140;SDS011;10231;47.702;9.826;2022-07-29T07:36:33;2.00;;;1.00;;
20140;SDS011;10231;47.702;9.826;2022-07-29T07:38:58;2.03;;;1.83;;
20140;SDS011;10231;47.702;9.826;2022-07-29T07:41:24;1.57;;;1.43;;
20140;SDS011;10231;47.702;9.826;2022-07-29T07:43:50;3.07;;;1.40;;
20140;SDS011;10231;47.702;9.826;2022-07-29T07:46:15;1.00;;;1.00;;
20140;SDS011;10231;47.702;9.826;2022-07-29T07:48:41;1.13;;;1.13;;
20140;SDS011;10231;47.702;9.826;2022-07-29T07:51:07;2.60;;;1.67;;
20140;SDS011;10231;47.702;9.826;2022-07-29T07:53:33;2.37;;;1.30;;
20140;SDS011;10231;47.702;9.826;2022-07-29T07:55:59;1.00;;;0.90;;
20140;SDS011;10231;47.702;9.826;2022-07-29T07:58:24;1.40;;;1.30;;
20140;SDS011;10231;47.702;9.826;2022-07-29T08:00:50;1.07;;;1.00;;
20140;SDS011;10231;47.702;9.826;2022-07-29T08:03:16;1.43;;;1.33;;
20140;SDS011;10231;47.702;9.826;2022-07-29T08:05:42;1.40;;;1.30;;
20140;SDS011;10231;47.702;9.826;2022-07-29T08:08:08;1.57;;;1.47;;
20140;SDS011;10231;47.702;9.826;2022-07-29T08:10:33;1.00;;;1.00;;
20140;SDS011;10231;47.702;9.826;2022-07-29T08:13:17;1.47;;;1.37;;
20140;SDS011;10231;47.702;9.826;2022-07-29T08:15:44;2.10;;;1.60;;
20140;SDS011;10231;47.702;9.826;2022-07-29T08:18:10;2.43;;;1.27;;
20140;SDS011;10231;47.702;9.826;2022-07-29T08:20:37;1.30;;;1.20;;
20140;SDS011;10231;47.702;9.826;2022-07-29T08:23:04;1.10;;;1.10;;
20140;SDS011;10231;47.702;9.826;2022-07-29T08:25:32;2.20;;;1.50;;
20140;SDS011;10231;47.702;9.826;2022-07-29T08:27:57;1.13;;;0.90;;
20140;SDS011;10231;47.702;9.826;2022-07-29T08:30:24;1.50;;;1.10;;
20140;SDS011;10231;47.702;9.826;2022-07-29T08:32:50;1.00;;;0.93;;
20140;SDS011;10231;47.702;9.826;2022-07-29T08:35:18;1.23;;;1.00;;
20140;SDS011;10231;47.702;9.826;2022-07-29T08:37:44;1.07;;;0.90;;
20140;SDS011;10231;47.702;9.826;2022-07-29T08:40:10;0.50;;;0.50;;
20140;SDS011;10231;47.702;9.826;2022-07-29T08:42:36;0.70;;;0.70;;
20140;SDS011;10231;47.702;9.826;2022-07-29T08:45:02;1.10;;;1.10;;
20140;SDS011;10231;47.702;9.826;2022-07-29T08:47:29;1.13;;;1.03;;
20140;SDS011;10231;47.702;9.826;2022-07-29T08:49:55;1.33;;;1.23;;
20140;SDS011;10231;47.702;9.826;2022-07-29T08:52:21;1.73;;;1.00;;
20140;SDS011;10231;47.702;9.826;2022-07-29T08:54:49;1.07;;;1.03;;
20140;SDS011;10231;47.702;9.826;2022-07-29T08:57:17;1.40;;;1.30;;
20140;SDS011;10231;47.702;9.826;2022-07-29T08:59:44;1.50;;;1.50;;
20140;SDS011;10231;47.702;9.826;2022-07-29T09:02:20;1.63;;;1.53;;
20140;SDS011;10231;47.702;9.826;2022-07-29T09:04:47;1.47;;;1.37;;
20140;SDS011;10231;47.702;9.826;2022-07-29T09:07:14;1.90;;;1.80;;
20140;SDS011;10231;47.702;9.826;2022-07-29T09:09:41;1.57;;;1.47;;
20140;SDS011;10231;47.702;9.826;2022-07-29T09:12:08;1.50;;;1.40;;
20140;SDS011;10231;47.702;9.826;2022-07-29T09:14:36;1.50;;;1.40;;
20140;SDS011;10231;47.702;9.826;2022-07-29T09:17:05;1.30;;;1.30;;
20140;SDS011;10231;47.702;9.826;2022-07-29T09:19:32;1.03;;;1.03;;
20140;SDS011;10231;47.702;9.826;2022-07-29T09:22:05;1.80;;;1.70;;
20140;SDS011;10231;47.702;9.826;2022-07-29T09:27:00;2.47;;;1.40;;
20140;SDS011;10231;47.702;9.826;2022-07-29T09:29:26;1.50;;;1.43;;
20140;SDS011;10231;47.702;9.826;2022-07-29T09:31:53;9.33;;;1.93;;
20140;SDS011;10231;47.702;9.826;2022-07-29T09:34:23;3.30;;;1.80;;
20140;SDS011;10231;47.702;9.826;2022-07-29T09:36:56;2.00;;;1.87;;
20140;SDS011;10231;47.702;9.826;2022-07-29T09:39:30;2.13;;;1.90;;
20140;SDS011;10231;47.702;9.826;2022-07-29T09:42:01;6.37;;;2.40;;
20140;SDS011;10231;47.702;9.826;2022-07-29T09:44:41;3.33;;;1.83;;
20140;SDS011;10231;47.702;9.826;2022-07-29T09:47:07;2.03;;;1.83;;
20140;SDS011;10231;47.702;9.826;2022-07-29T09:49:49;2.63;;;2.20;;
20140;SDS011;10231;47.702;9.826;2022-07-29T09:52:15;2.80;;;1.70;;
20140;SDS011;10231;47.702;9.826;2022-07-29T09:54:40;3.43;;;1.93;;
20140;SDS011;10231;47.702;9.826;2022-07-29T09:57:07;2.97;;;2.03;;
20140;SDS011;10231;47.702;9.826;2022-07-29T09:59:38;1.90;;;1.80;;
20140;SDS011;10231;47.702;9.826;2022-07-29T10:02:13;2.73;;;2.50;;
20140;SDS011;10231;47.702;9.826;2022-07-29T10:04:39;2.13;;;2.03;;
20140;SDS011;10231;47.702;9.826;2022-07-29T10:07:06;2.57;;;2.33;;
20140;SDS011;10231;47.702;9.826;2022-07-29T10:09:33;2.43;;;2.23;;
20140;SDS011;10231;47.702;9.826;2022-07-29T10:12:17;2.40;;;2.17;;
20140;SDS011;10231;47.702;9.826;2022-07-29T10:14:43;2.67;;;2.47;;
20140;SDS011;10231;47.702;9.826;2022-07-29T10:17:09;3.27;;;2.97;;
20140;SDS011;10231;47.702;9.826;2022-07-29T10:19:36;2.90;;;2.70;;
20140;SDS011;10231;47.702;9.826;2022-07-29T10:22:07;3.00;;;2.80;;
20140;SDS011;10231;47.702;9.826;2022-07-29T10:24:34;3.00;;;2.80;;
20140;SDS011;10231;47.702;9.826;2022-07-29T10:27:03;3.20;;;2.83;;
20140;SDS011;10231;47.702;9.826;2022-07-29T10:29:30;3.70;;;3.37;;
20140;SDS011;10231;47.702;9.826;2022-07-29T10:32:17;3.43;;;2.90;;
20140;SDS011;10231;47.702;9.826;2022-07-29T10:35:06;3.90;;;3.07;;
20140;SDS011;10231;47.702;9.826;2022-07-29T10:43:44;3.00;;;2.80;;
20140;SDS011;10231;47.702;9.826;2022-07-29T10:46:12;3.73;;;2.77;;
20140;SDS011;10231;47.702;9.826;2022-07-29T10:51:50;2.93;;;2.70;;
20140;SDS011;10231;47.702;9.826;2022-07-29T10:54:17;2.70;;;2.50;;
20140;SDS011;10231;47.702;9.826;2022-07-29T10:57:04;2.67;;;2.57;;
20140;SDS011;10231;47.702;9.826;2022-07-29T10:59:42;2.43;;;2.30;;
20140;SDS011;10231;47.702;9.826;2022-07-29T11:02:55;3.50;;;2.63;;
20140;SDS011;10231;47.702;9.826;2022-07-29T11:04:59;2.60;;;2.40;;
20140;SDS011;10231;47.702;9.826;2022-07-29T11:07:26;2.37;;;2.23;;
20140;SDS011;10231;47.702;9.826;2022-07-29T11:20:48;2.50;;;2.30;;
20140;SDS011;10231;47.702;9.826;2022-07-29T11:32:07;2.57;;;2.10;;
20140;SDS011;10231;47.702;9.826;2022-07-29T11:34:18;2.30;;;2.10;;
